メインページ
METAR-TAF:

METAR-TAF

空港 :

リスボン, ポルトガル

ウンベルト・デルガード空港

緯度: 38-46N, 経度: 009-08W, 海抜: 114m

現時点の気象観測

当レポートは21分前の11:30(UTC)に作成
変向風 3kt
気温 26°C
湿度 58%
気圧 1015 hPa
視程10km以上
1,500メートル以下は雲なし、積乱雲なし

METAR: LPPT 241130Z VRB03KT CAVOK 26/17 Q1015

時間: 12:51 (11:51 UTC)

予報

当レポートは51分前の11:00(UTC)に作成
予報は24日の 12時(UTC)から 25日の 18時(UTC)まで有効
変向風 5kt
視程10km以上
1,500メートル以下は雲なし、積乱雲なし
24日の 12時(UTC)から 24日の 14時(UTC)まで徐々に
西の風 8kt
24日の 16時(UTC)から 24日の 18時(UTC)まで徐々に
西/北西の風 10kt
25日の 00時(UTC)から 25日の 02時(UTC)まで徐々に
変向風 3kt
25日の 10時(UTC)から 25日の 12時(UTC)まで徐々に
南西の風 8kt
25日の 12時(UTC)から 25日の 18時(UTC)まで一時的に
視程10km以上
高度3000ftの雲はほとんどない, 積乱雲.
25日の 15時(UTC)から 25日の 17時(UTC)まで徐々に
西/北西の風 10kt

TAF: LPPT 241100Z 2412/2518 VRB05KT CAVOK BECMG 2412/2414 26008KT BECMG 2416/2418 30010KT BECMG 2500/2502 VRB03KT BECMG 2510/2512 22008KT TEMPO 2512/2518 9999 FEW030CB BECMG 2515/2517 30010KT

4,000以上の空港の気象観測と天気予報(METAR報とTAF報)

利用可能な観測所は地図上に黄色い丸と赤い丸で示す。

丸の上にカーソルを重ねると観測所名を参照できる。

次にクリックすると気象観測と天気予報を参照できる。

マップの切り替え:黒色「×」印の緑ボタンをクリックして拡大、「-」印の緑ボタンをクリックして縮小、緑色の三角印をクリックして隣りの地図に切り替え


METAR-TAF: